Latest  Newer  Older  Last 2 hours animation  Current image  Latest image 
Rain/snow radar  Infrared sat images 
Real-time lightning map

All time is UTC (add 2 hours to UTC in wintertime, 3 hours to UTC in DST for Latvia local time)

2018/11/18 17:50 EVRA 181750Z 03014KT 9999 SCT034 03/00 Q1030 R36/090095 NOSIG
2018/11/18 17:50 EVLA 181750Z AUTO 02008KT 9999 SCT053/// 04/02 Q1031
2018/11/18 17:50 EVVA 181750Z AUTO 04009KT 9999 BKN047 04/02 Q1032
2018/11/18 17:50 EYKA 181750Z 02008KT 340V060 9999 BKN011 OVC019 04/03 Q1026 R08/190095
2018/11/18 17:50 EYPA 181750Z 03008KT 9999 BKN023 04/01 Q1030 R01/1///95
2018/11/18 17:50 EYSA 181750Z 03011KT 9999 FEW027 BKN037 OVC045 03/01 Q1028 R14L/09//95 BLU TEMPO SCT023 BKN053 WHT
2018/11/18 17:50 EYVI 181750Z 03009KT 6000 -RA OVC006 03/03 Q1024 R01/2///95 NOSIG
2018/11/18 15:50 EEKA 181550Z 03014KT 9999 -RA BKN023 05/01 Q1035
2018/11/18 16:50 EEKE 181650Z 03008KT 9999 BKN044 03/01 Q1034
2018/11/18 13:50 EEPU 181350Z 04012KT 010V080 9999 SCT026 05/00 Q1032
2018/11/18 17:50 EETN 181750Z 06012KT 9999 -SHRA FEW014 FEW022CB BKN040 03/M01 Q1035 R08/290195 NOSIG
2018/11/18 17:50 EETU 181750Z AUTO 04012KT 9999 OVC023/// 03/M02 Q1032
   RIGA AIRPORT     EVRA               56 55N  023 58E   10   X     T          6 LV
   LIEPAJA INTL     EVLA        26406  56 31N  021 06E    4   X                8 LV
   VENTPILS         EVVA               57 21N  021 33E    6   X                8 LV
   KAUNAS           EYKA               54 54N  023 55E   77   X     T          6 LT
   PALANGA INTL     EYPA               55 55N  021 03E   10   X                6 LT
   SIAULIAI INTL    EYSA               55 54N  023 24E  135   X     T          6 LT
   VILNIUS INTL     EYVI        26730  54 38N  025 17E  197   X     T          6 LT
   KARDLA           EEKA        26116  58 59N  022 50E    4   X                8 EE
   KURESSAARE       EEKE               58 14N  022 31E    4   X                8 EE
   PARNU            EEPU               58 25N  024 28E   14   X                8 EE
   TALLINN          EETN        26038  59 24N  024 49E   40   X     T          8 EE
   TARTU            EETU               58 19N  026 41E   67   X                8 EE

cloud coverage image from sat24.com and METAR data from weather.noaa.gov